createdAt,value
2023-05-13T00:00:32.901Z,11.07
2023-05-13T00:03:14.122Z,10.68
2023-05-13T00:05:43.406Z,10.43
2023-05-13T00:08:12.270Z,9.38
2023-05-13T00:10:42.456Z,10.68
2023-05-13T00:13:10.816Z,11.32
2023-05-13T00:15:40.775Z,11.38
2023-05-13T00:18:10.573Z,10.77
2023-05-13T00:20:39.222Z,10.98
2023-05-13T00:23:08.464Z,11.82
2023-05-13T00:25:38.226Z,13.10
2023-05-13T00:28:07.785Z,15.63
2023-05-13T00:30:37.164Z,14.52
2023-05-13T00:33:07.865Z,13.90
2023-05-13T00:35:37.255Z,13.35
2023-05-13T00:38:06.128Z,12.70
2023-05-13T00:40:40.022Z,12.32
2023-05-13T00:43:08.781Z,13.07
2023-05-13T00:45:38.550Z,13.25
2023-05-13T00:48:07.708Z,12.35
2023-05-13T00:50:36.633Z,12.80
2023-05-13T00:53:04.981Z,13.07
2023-05-13T00:55:36.266Z,12.85
2023-05-13T00:58:04.555Z,12.50
2023-05-13T01:00:39.491Z,12.40
2023-05-13T01:03:16.974Z,12.23
2023-05-13T01:05:59.568Z,13.40
2023-05-13T01:08:46.357Z,13.00
2023-05-13T01:11:24.273Z,13.80
2023-05-13T01:14:03.948Z,11.82
2023-05-13T01:16:42.995Z,11.45
2023-05-13T01:19:34.041Z,12.35
2023-05-13T01:22:05.111Z,11.40
2023-05-13T01:24:34.934Z,11.25
2023-05-13T01:27:06.406Z,11.73
2023-05-13T01:29:41.140Z,11.30
2023-05-13T01:32:11.517Z,11.32
2023-05-13T01:34:41.986Z,11.40
2023-05-13T01:37:11.584Z,11.50
2023-05-13T01:39:42.091Z,12.15
2023-05-13T01:42:16.183Z,11.68
2023-05-13T01:44:45.334Z,12.30
2023-05-13T01:47:14.091Z,11.80
2023-05-13T01:49:42.450Z,11.55
2023-05-13T01:52:11.380Z,12.05
2023-05-13T01:54:40.030Z,13.25
2023-05-13T01:57:12.351Z,12.57
2023-05-13T01:59:40.851Z,12.90
2023-05-13T02:02:10.057Z,12.65
2023-05-13T02:04:39.547Z,11.45
2023-05-13T02:07:09.231Z,12.35
2023-05-13T02:09:37.920Z,13.27
2023-05-13T02:12:08.557Z,13.43
2023-05-13T02:14:37.853Z,13.60
2023-05-13T02:17:06.583Z,12.95
2023-05-13T02:19:34.921Z,13.75
2023-05-13T02:22:03.681Z,13.15
2023-05-13T02:24:32.571Z,13.35
2023-05-13T02:27:01.242Z,13.50
2023-05-13T02:29:29.583Z,13.60
2023-05-13T02:31:58.552Z,13.60
2023-05-13T02:34:27.068Z,13.38
2023-05-13T02:36:56.235Z,13.13
2023-05-13T02:39:25.613Z,12.98
2023-05-13T02:41:56.617Z,13.05
2023-05-13T02:44:28.377Z,12.77
2023-05-13T02:46:57.167Z,13.85
2023-05-13T02:49:25.702Z,13.48
2023-05-13T02:52:19.376Z,13.57
2023-05-13T02:54:47.627Z,13.77
2023-05-13T02:57:16.800Z,13.35
2023-05-13T02:59:45.892Z,15.05
2023-05-13T03:02:14.931Z,15.18
2023-05-13T03:04:43.518Z,15.48
2023-05-13T03:07:12.489Z,18.50
2023-05-13T03:09:42.522Z,15.77
2023-05-13T03:12:11.524Z,15.45
2023-05-13T03:14:40.306Z,15.45
2023-05-13T03:17:09.224Z,16.25
2023-05-13T03:19:38.879Z,16.17
2023-05-13T03:22:07.824Z,14.80
2023-05-13T03:24:36.323Z,15.82
2023-05-13T03:27:05.756Z,15.63
2023-05-13T03:29:35.250Z,15.88
2023-05-13T03:32:06.778Z,17.17
2023-05-13T03:34:36.523Z,18.42
2023-05-13T03:37:06.073Z,17.45
2023-05-13T03:39:34.373Z,17.00
2023-05-13T03:42:03.511Z,16.15
2023-05-13T03:44:33.159Z,17.15
2023-05-13T03:47:01.982Z,17.90
2023-05-13T03:49:30.912Z,16.35
2023-05-13T03:52:00.099Z,17.10
2023-05-13T03:54:28.767Z,16.55
2023-05-13T03:56:57.967Z,16.05
2023-05-13T03:59:26.781Z,17.05
2023-05-13T04:01:55.843Z,17.25
2023-05-13T04:04:24.286Z,18.45
2023-05-13T04:06:53.083Z,17.42
2023-05-13T04:09:21.565Z,18.20
2023-05-13T04:11:50.701Z,17.60
2023-05-13T04:14:19.472Z,17.88
2023-05-13T04:16:48.408Z,17.38
2023-05-13T04:19:17.174Z,17.13
2023-05-13T04:21:46.954Z,17.27
2023-05-13T04:24:15.538Z,17.20
2023-05-13T04:26:44.421Z,17.20
2023-05-13T04:29:13.152Z,17.00
2023-05-13T04:31:42.903Z,17.08
2023-05-13T04:34:11.227Z,17.52
2023-05-13T04:36:40.208Z,17.55
2023-05-13T04:39:11.140Z,16.50
2023-05-13T04:41:42.309Z,16.80
2023-05-13T04:44:11.348Z,16.60
2023-05-13T04:46:40.628Z,16.33
2023-05-13T04:49:10.547Z,17.40
2023-05-13T04:51:39.761Z,17.80
2023-05-13T04:54:08.822Z,17.65
2023-05-13T04:56:38.377Z,18.25
2023-05-13T04:59:10.278Z,18.35
2023-05-13T05:01:39.801Z,17.55
2023-05-13T05:04:08.163Z,17.67
2023-05-13T05:06:38.495Z,18.20
2023-05-13T05:09:07.426Z,16.85
2023-05-13T05:11:42.416Z,17.77
2023-05-13T05:14:11.891Z,17.23
2023-05-13T05:16:41.081Z,17.50
2023-05-13T05:19:10.575Z,16.67
2023-05-13T05:21:42.379Z,15.50
2023-05-13T05:24:11.184Z,14.90
2023-05-13T05:26:42.788Z,16.17
2023-05-13T05:29:12.933Z,15.52
2023-05-13T05:31:42.939Z,12.35
2023-05-13T05:34:11.676Z,10.27
2023-05-13T05:36:41.340Z,10.43
2023-05-13T05:39:09.822Z,10.27
2023-05-13T05:41:38.939Z,10.50
2023-05-13T05:44:08.365Z,10.00
2023-05-13T05:47:02.857Z,9.68
2023-05-13T05:49:31.306Z,9.70
2023-05-13T05:52:01.190Z,10.15
2023-05-13T05:54:29.638Z,9.80
2023-05-13T05:56:58.907Z,9.65
2023-05-13T05:59:28.690Z,10.38
2023-05-13T06:01:58.227Z,10.32
2023-05-13T06:04:26.931Z,10.07
2023-05-13T06:06:55.925Z,10.00
2023-05-13T06:09:24.389Z,9.52
2023-05-13T06:11:53.370Z,9.65
2023-05-13T06:14:21.704Z,9.68
2023-05-13T06:16:50.600Z,9.98
2023-05-13T06:19:18.930Z,9.18
2023-05-13T06:21:48.712Z,8.70
2023-05-13T06:24:17.113Z,9.30
2023-05-13T06:26:45.891Z,9.00
2023-05-13T06:29:15.738Z,8.82
2023-05-13T06:31:44.754Z,9.43
2023-05-13T06:34:16.763Z,8.30
2023-05-13T06:36:46.376Z,8.52
2023-05-13T06:39:15.405Z,9.27
2023-05-13T06:41:45.816Z,13.88
2023-05-13T06:44:17.196Z,8.15
2023-05-13T06:46:48.167Z,7.90
2023-05-13T06:49:16.444Z,7.47
2023-05-13T06:51:45.000Z,8.23
2023-05-13T06:54:13.725Z,8.95
2023-05-13T06:56:42.553Z,8.60
2023-05-13T06:59:12.124Z,8.45
2023-05-13T07:01:42.405Z,8.15
2023-05-13T07:04:10.758Z,7.95
2023-05-13T07:06:39.387Z,7.72
2023-05-13T07:09:09.667Z,7.47
2023-05-13T07:11:38.293Z,8.43
2023-05-13T07:14:06.571Z,8.10
2023-05-13T07:16:35.344Z,9.48
2023-05-13T07:19:03.578Z,8.10
2023-05-13T07:21:32.166Z,8.35
2023-05-13T07:24:02.362Z,7.88
2023-05-13T07:26:31.713Z,7.80
2023-05-13T07:28:59.932Z,7.43
2023-05-13T07:31:29.071Z,7.85
2023-05-13T07:33:57.712Z,8.13
2023-05-13T07:36:26.313Z,7.88
2023-05-13T07:38:54.522Z,7.63
2023-05-13T07:41:23.103Z,8.40
2023-05-13T07:43:51.265Z,8.10
2023-05-13T07:46:19.957Z,7.97
2023-05-13T07:48:48.512Z,7.07
2023-05-13T07:51:18.494Z,6.93
2023-05-13T07:53:47.259Z,7.00
2023-05-13T07:56:15.830Z,7.28
2023-05-13T07:58:46.091Z,5.68
2023-05-13T08:01:14.908Z,5.55
2023-05-13T08:03:43.219Z,5.50
2023-05-13T08:06:12.041Z,6.40
2023-05-13T08:08:40.243Z,4.80
2023-05-13T08:11:08.792Z,5.32
2023-05-13T08:13:37.076Z,7.47
2023-05-13T08:16:07.372Z,6.40
2023-05-13T08:18:38.174Z,4.15
2023-05-13T08:21:06.816Z,7.93
2023-05-13T08:23:44.758Z,5.38
2023-05-13T08:26:15.239Z,5.07
2023-05-13T08:28:43.823Z,5.32
2023-05-13T08:31:13.233Z,18.88
2023-05-13T08:33:46.283Z,6.63
2023-05-13T08:36:15.160Z,5.07
2023-05-13T08:38:43.922Z,5.10
2023-05-13T08:41:16.908Z,4.85
2023-05-13T08:43:47.591Z,4.60
2023-05-13T08:46:21.597Z,4.40
2023-05-13T08:48:52.900Z,7.68
2023-05-13T08:51:22.261Z,5.50
2023-05-13T08:53:53.290Z,5.07
2023-05-13T08:56:28.446Z,6.45
2023-05-13T08:58:56.877Z,9.93
2023-05-13T09:01:26.936Z,4.88
2023-05-13T09:04:02.088Z,5.03
2023-05-13T09:06:30.734Z,4.90
2023-05-13T09:08:59.334Z,8.52
2023-05-13T09:11:28.909Z,8.15
2023-05-13T09:14:01.939Z,5.75
2023-05-13T09:16:32.757Z,4.90
2023-05-13T09:19:04.668Z,5.60
2023-05-13T09:21:37.753Z,5.00
2023-05-13T09:24:13.614Z,5.25
2023-05-13T09:26:42.368Z,5.00
2023-05-13T09:29:25.552Z,4.85
2023-05-13T09:31:58.017Z,4.20
2023-05-13T09:34:31.470Z,4.85
2023-05-13T09:37:04.849Z,4.45
2023-05-13T09:39:39.907Z,6.72
2023-05-13T09:42:18.833Z,5.38
2023-05-13T09:44:47.887Z,4.70
2023-05-13T09:47:17.506Z,4.13
2023-05-13T09:49:55.104Z,4.20
2023-05-13T09:52:23.856Z,14.55
2023-05-13T09:54:52.047Z,8.43
2023-05-13T09:57:21.186Z,5.18
2023-05-13T09:59:49.413Z,4.10
2023-05-13T10:02:18.761Z,4.75
2023-05-13T10:04:47.436Z,5.38
2023-05-13T10:07:16.352Z,4.68
2023-05-13T10:09:46.307Z,4.32
2023-05-13T10:12:15.117Z,3.97
2023-05-13T10:14:44.286Z,4.38
2023-05-13T10:17:14.103Z,3.95
2023-05-13T10:19:42.900Z,3.72
2023-05-13T10:22:13.256Z,5.15
2023-05-13T10:24:42.804Z,7.43
2023-05-13T10:27:12.321Z,4.13
2023-05-13T10:29:43.530Z,3.70
2023-05-13T10:32:13.041Z,4.45
2023-05-13T10:34:45.204Z,4.30
2023-05-13T10:37:44.579Z,4.25
2023-05-13T10:40:37.528Z,5.45
2023-05-13T10:43:12.046Z,4.72
2023-05-13T10:45:40.488Z,7.95
2023-05-13T10:48:13.647Z,5.75
2023-05-13T10:50:57.897Z,5.65
2023-05-13T10:53:32.392Z,5.22
2023-05-13T10:56:00.668Z,4.85
2023-05-13T10:58:34.839Z,5.00
2023-05-13T11:01:18.223Z,3.88
2023-05-13T11:03:55.108Z,4.15
2023-05-13T11:06:37.503Z,4.30
2023-05-13T11:09:29.335Z,4.60
2023-05-13T11:12:01.528Z,4.57
2023-05-13T11:14:33.223Z,4.22
2023-05-13T11:17:01.889Z,4.03
2023-05-13T11:19:36.580Z,3.95
2023-05-13T11:22:13.809Z,4.10
2023-05-13T11:24:46.024Z,4.18
2023-05-13T11:27:21.434Z,3.90
2023-05-13T11:29:58.069Z,5.40
2023-05-13T11:32:51.573Z,3.90
2023-05-13T11:35:24.601Z,4.80
2023-05-13T11:37:54.010Z,4.03
2023-05-13T11:40:26.591Z,3.80
2023-05-13T11:42:55.749Z,3.65
2023-05-13T11:45:25.731Z,3.63
2023-05-13T11:47:55.050Z,3.50
2023-05-13T11:50:28.006Z,3.50
2023-05-13T11:53:00.791Z,3.83
2023-05-13T11:55:36.208Z,3.53
2023-05-13T11:58:04.861Z,3.78
2023-05-13T12:00:34.875Z,3.45
2023-05-13T12:03:11.116Z,3.13
2023-05-13T12:05:40.079Z,3.78
2023-05-13T12:08:12.127Z,3.60
2023-05-13T12:10:45.027Z,3.80
2023-05-13T12:13:13.627Z,4.18
2023-05-13T12:15:42.654Z,3.78
2023-05-13T12:18:11.533Z,3.45
2023-05-13T12:20:40.040Z,3.83
2023-05-13T12:23:11.929Z,4.80
2023-05-13T12:25:45.299Z,3.63
2023-05-13T12:28:18.066Z,3.53
2023-05-13T12:30:53.782Z,5.25
2023-05-13T12:33:24.422Z,5.28
2023-05-13T12:36:12.643Z,4.03
2023-05-13T12:38:53.424Z,3.63
2023-05-13T12:41:23.010Z,3.13
2023-05-13T12:43:51.418Z,3.30
2023-05-13T12:46:20.385Z,3.22
2023-05-13T12:48:48.584Z,3.63
2023-05-13T12:51:17.070Z,4.55
2023-05-13T12:53:45.267Z,2.90
2023-05-13T12:56:13.878Z,3.20
2023-05-13T13:03:33.425Z,3.22
2023-05-13T13:06:02.535Z,3.25
2023-05-13T13:08:31.121Z,3.10
2023-05-13T13:11:00.777Z,3.55
2023-05-13T13:13:29.151Z,4.15
2023-05-13T13:15:58.647Z,3.80
2023-05-13T13:18:27.178Z,3.90
2023-05-13T13:20:56.032Z,5.05
2023-05-13T13:23:24.250Z,6.18
2023-05-13T13:25:52.816Z,5.60
2023-05-13T13:28:21.097Z,3.25
2023-05-13T13:30:49.716Z,3.13
2023-05-13T13:33:22.444Z,3.60
2023-05-13T13:35:51.351Z,3.55
2023-05-13T13:38:19.564Z,4.25
2023-05-13T13:40:48.057Z,3.85
2023-05-13T13:43:16.588Z,4.10
2023-05-13T13:45:45.236Z,4.63
2023-05-13T13:48:13.789Z,3.75
2023-05-13T13:53:25.728Z,4.65
2023-05-13T13:55:54.808Z,3.10
2023-05-13T13:58:23.265Z,3.63
2023-05-13T14:00:53.054Z,4.00
2023-05-13T14:03:21.436Z,3.92
2023-05-13T14:05:50.341Z,3.40
2023-05-13T14:08:18.718Z,3.90
2023-05-13T14:10:47.310Z,3.17
2023-05-13T14:13:15.758Z,4.05
2023-05-13T14:15:44.548Z,2.97
2023-05-13T14:18:12.921Z,4.10
2023-05-13T14:20:41.528Z,4.75
2023-05-13T14:23:10.114Z,4.00
2023-05-13T14:25:38.731Z,3.88
2023-05-13T14:28:07.072Z,4.05
2023-05-13T14:30:35.595Z,4.90
2023-05-13T14:33:04.032Z,3.90
2023-05-13T14:35:32.854Z,4.15
2023-05-13T14:38:01.168Z,4.80
2023-05-13T14:40:30.829Z,3.90
2023-05-13T14:42:59.169Z,3.30
2023-05-13T14:45:27.948Z,5.72
2023-05-13T14:47:56.223Z,3.10
2023-05-13T14:50:24.994Z,3.58
2023-05-13T14:52:53.429Z,3.20
2023-05-13T14:55:21.945Z,2.85
2023-05-13T14:57:50.225Z,3.53
2023-05-13T15:00:18.925Z,3.22
2023-05-13T15:02:47.218Z,4.45
2023-05-13T15:05:16.012Z,3.03
2023-05-13T15:07:44.348Z,3.45
2023-05-13T15:10:12.944Z,3.08
2023-05-13T15:12:41.441Z,3.58
2023-05-13T15:15:11.196Z,3.33
2023-05-13T15:17:39.636Z,3.53
2023-05-13T15:20:08.943Z,3.20
2023-05-13T15:22:37.250Z,2.80
2023-05-13T15:25:06.329Z,2.70
2023-05-13T15:27:34.865Z,2.83
2023-05-13T15:30:03.515Z,2.83
2023-05-13T15:32:31.909Z,3.38
2023-05-13T15:35:00.608Z,2.90
2023-05-13T15:37:28.888Z,3.40
2023-05-13T15:39:57.387Z,3.55
2023-05-13T15:42:25.879Z,4.60
2023-05-13T15:44:54.525Z,3.65
2023-05-13T15:47:22.907Z,3.78
2023-05-13T15:49:54.239Z,3.47
2023-05-13T15:52:22.769Z,2.88
2023-05-13T15:54:51.461Z,2.90
2023-05-13T15:57:19.848Z,5.38
2023-05-13T15:59:48.573Z,4.55
2023-05-13T16:02:18.504Z,3.20
2023-05-13T16:04:47.371Z,4.13
2023-05-13T16:07:16.144Z,3.88
2023-05-13T16:09:44.731Z,2.70
2023-05-13T16:12:13.030Z,2.97
2023-05-13T16:14:41.875Z,3.63
2023-05-13T16:17:10.972Z,3.90
2023-05-13T16:19:39.691Z,4.18
2023-05-13T16:22:34.252Z,3.85
2023-05-13T16:25:05.487Z,3.53
2023-05-13T16:27:34.477Z,3.42
2023-05-13T16:30:06.327Z,3.25
2023-05-13T16:32:35.147Z,3.35
2023-05-13T16:35:04.352Z,4.35
2023-05-13T16:37:37.634Z,4.13
2023-05-13T16:40:07.120Z,4.05
2023-05-13T16:42:35.620Z,3.83
2023-05-13T16:45:05.040Z,3.67
2023-05-13T16:47:33.716Z,3.53
2023-05-13T16:50:02.304Z,3.55
2023-05-13T16:52:32.700Z,3.50
2023-05-13T16:55:01.495Z,3.42
2023-05-13T16:57:29.900Z,3.67
2023-05-13T16:59:58.475Z,3.45
2023-05-13T17:02:26.960Z,5.80
2023-05-13T17:04:55.804Z,3.60
2023-05-13T17:07:24.195Z,3.38
2023-05-13T17:09:52.871Z,3.30
2023-05-13T17:12:21.049Z,4.30
2023-05-13T17:14:49.611Z,4.65
2023-05-13T17:17:28.280Z,4.80
2023-05-13T17:19:57.733Z,4.40
2023-05-13T17:22:26.023Z,6.18
2023-05-13T17:24:54.702Z,7.45
2023-05-13T17:27:23.006Z,8.38
2023-05-13T17:29:52.029Z,8.57
2023-05-13T17:32:20.294Z,6.20
2023-05-13T17:34:48.832Z,5.32
2023-05-13T17:37:17.052Z,5.30
2023-05-13T17:39:45.604Z,12.95
2023-05-13T17:42:13.874Z,7.88
2023-05-13T17:44:42.457Z,9.38
2023-05-13T17:47:10.857Z,10.13
2023-05-13T17:49:39.422Z,10.00
2023-05-13T17:52:10.029Z,7.53
2023-05-13T17:55:25.826Z,9.88
2023-05-13T17:58:45.602Z,35.05
2023-05-13T18:01:15.971Z,28.65
2023-05-13T18:03:50.267Z,14.85
2023-05-13T18:06:22.188Z,14.45
2023-05-13T18:09:00.084Z,14.68
2023-05-13T18:11:41.362Z,14.20
2023-05-13T18:14:37.211Z,14.63
2023-05-13T18:17:09.073Z,21.73
2023-05-13T18:19:37.608Z,19.55
2023-05-13T18:22:17.580Z,18.20
2023-05-13T18:24:53.160Z,12.85
2023-05-13T18:29:50.451Z,12.35
2023-05-13T18:32:19.022Z,11.85
2023-05-13T18:34:47.790Z,11.32
2023-05-13T18:37:18.610Z,13.48
2023-05-13T18:39:47.001Z,12.85
2023-05-13T18:42:17.514Z,14.60
2023-05-13T18:44:46.074Z,20.48
2023-05-13T18:47:14.687Z,17.58
2023-05-13T18:49:45.352Z,19.48
2023-05-13T18:52:14.121Z,20.07
2023-05-13T18:54:43.049Z,23.52
2023-05-13T18:57:32.834Z,21.17
2023-05-13T19:00:01.290Z,24.90
2023-05-13T19:02:30.525Z,21.17
2023-05-13T19:04:59.374Z,24.45
2023-05-13T19:07:28.154Z,21.40
2023-05-13T19:09:56.668Z,20.98
2023-05-13T19:12:28.844Z,19.80
2023-05-13T19:17:26.223Z,19.23
2023-05-13T19:19:55.483Z,19.77
2023-05-13T19:22:24.095Z,25.02
2023-05-13T19:24:54.802Z,23.48
2023-05-13T19:27:23.806Z,21.70
2023-05-13T19:29:52.279Z,22.58
2023-05-13T19:32:21.002Z,23.50
2023-05-13T19:34:49.374Z,24.85
2023-05-13T19:37:18.622Z,24.40
2023-05-13T19:39:49.568Z,21.95
2023-05-13T19:42:18.262Z,14.63
2023-05-13T19:44:46.798Z,12.25
2023-05-13T19:47:17.932Z,12.57
2023-05-13T19:49:46.246Z,10.52
2023-05-13T19:52:18.034Z,10.98
2023-05-13T19:54:50.573Z,11.10
2023-05-13T19:57:19.351Z,15.80
2023-05-13T19:59:48.452Z,15.88
2023-05-13T20:02:17.471Z,14.25
2023-05-13T20:04:48.412Z,13.65
2023-05-13T20:07:17.890Z,20.13
2023-05-13T20:09:48.666Z,21.40
2023-05-13T20:12:17.279Z,22.17
2023-05-13T20:15:00.608Z,21.23
2023-05-13T20:17:30.949Z,22.30
2023-05-13T20:19:59.602Z,19.98
2023-05-13T20:22:30.809Z,21.85
2023-05-13T20:25:01.519Z,19.75
2023-05-13T20:27:30.371Z,21.45
2023-05-13T20:30:00.504Z,20.08
2023-05-13T20:32:31.453Z,19.88
2023-05-13T20:35:11.488Z,19.13
2023-05-13T20:38:01.301Z,18.80
2023-05-13T20:40:33.214Z,19.88
2023-05-13T20:43:02.219Z,20.75
2023-05-13T20:45:30.671Z,20.48
2023-05-13T20:47:59.564Z,20.88
2023-05-13T20:50:33.196Z,21.60
2023-05-13T20:53:09.144Z,19.60
2023-05-13T20:55:37.571Z,20.42
2023-05-13T20:58:09.986Z,19.95
2023-05-13T21:00:43.815Z,17.08
2023-05-13T21:03:12.655Z,12.93
2023-05-13T21:05:41.345Z,12.80
2023-05-13T21:08:12.635Z,13.18
2023-05-13T21:10:41.329Z,14.35
2023-05-13T21:13:11.753Z,15.57
2023-05-13T21:15:44.647Z,14.60
2023-05-13T21:21:33.411Z,16.23
2023-05-13T21:24:03.460Z,19.75
2023-05-13T21:26:32.962Z,20.27
2023-05-13T21:29:07.783Z,24.13
2023-05-13T21:31:55.810Z,28.25
2023-05-13T21:34:25.843Z,25.88
2023-05-13T21:36:57.846Z,24.30
2023-05-13T21:39:47.724Z,25.40
2023-05-13T21:45:49.740Z,18.20
2023-05-13T21:49:08.525Z,19.98
2023-05-13T21:51:58.191Z,21.70
2023-05-13T21:58:35.800Z,20.60
2023-05-13T22:09:19.429Z,17.02
2023-05-13T22:20:36.564Z,16.23
2023-05-13T22:23:19.234Z,17.70
2023-05-13T22:25:47.675Z,16.65
2023-05-13T22:28:16.329Z,15.93
2023-05-13T22:30:49.484Z,15.32
2023-05-13T22:33:19.053Z,16.30
2023-05-13T22:36:16.323Z,16.85
2023-05-13T22:39:15.476Z,17.92
2023-05-13T22:41:50.872Z,16.77
2023-05-13T22:44:50.719Z,16.58
2023-05-13T22:49:54.678Z,17.05
2023-05-13T22:52:24.825Z,16.00
2023-05-13T22:54:53.256Z,26.02
2023-05-13T22:57:32.585Z,28.52
2023-05-13T23:00:00.943Z,23.55
2023-05-13T23:02:29.529Z,22.33
2023-05-13T23:04:58.078Z,21.48
2023-05-13T23:07:26.624Z,21.92
2023-05-13T23:09:54.918Z,21.70
2023-05-13T23:12:23.586Z,21.70
2023-05-13T23:14:52.021Z,22.20
2023-05-13T23:17:21.704Z,23.27
2023-05-13T23:19:50.045Z,20.42
2023-05-13T23:22:18.772Z,20.98
2023-05-13T23:24:47.051Z,23.83
2023-05-13T23:27:16.122Z,20.13
2023-05-13T23:29:44.544Z,15.35
2023-05-13T23:32:14.735Z,14.80
2023-05-13T23:34:45.356Z,14.73
2023-05-13T23:37:15.731Z,15.38
2023-05-13T23:39:44.881Z,15.15
2023-05-13T23:42:13.408Z,15.50
2023-05-13T23:44:41.739Z,15.63
2023-05-13T23:47:12.293Z,18.42
2023-05-13T23:49:40.550Z,20.35
2023-05-13T23:52:09.244Z,19.75
2023-05-13T23:54:37.691Z,20.48
2023-05-13T23:57:06.513Z,18.00
2023-05-13T23:59:34.771Z,18.33
